createdAt,value
2018-02-24T00:01:05.073Z,9.25
2018-02-24T00:03:33.380Z,9.60
2018-02-24T00:06:01.539Z,9.23
2018-02-24T00:08:30.450Z,8.82
2018-02-24T00:10:58.645Z,10.18
2018-02-24T00:13:26.839Z,8.98
2018-02-24T00:15:55.050Z,9.02
2018-02-24T00:18:23.985Z,8.32
2018-02-24T00:20:52.179Z,8.73
2018-02-24T00:23:20.386Z,9.02
2018-02-24T00:25:49.373Z,9.57
2018-02-24T00:28:18.538Z,10.13
2018-02-24T00:30:46.807Z,9.75
2018-02-24T00:33:14.998Z,9.77
2018-02-24T00:35:43.179Z,10.65
2018-02-24T00:38:19.484Z,9.45
2018-02-24T00:40:47.654Z,9.43
2018-02-24T00:43:15.851Z,8.35
2018-02-24T00:45:44.078Z,11.12
2018-02-24T00:48:13.066Z,8.93
2018-02-24T00:50:45.000Z,9.80
2018-02-24T00:53:13.871Z,8.43
2018-02-24T00:55:42.173Z,8.80
2018-02-24T00:58:11.363Z,9.25
2018-02-24T01:00:39.611Z,7.87
2018-02-24T01:03:07.801Z,8.98
2018-02-24T01:05:36.065Z,9.68
2018-02-24T01:08:04.274Z,8.13
2018-02-24T01:10:32.436Z,8.30
2018-02-24T01:13:00.611Z,9.88
2018-02-24T01:15:28.899Z,7.87
2018-02-24T01:17:57.571Z,8.98
2018-02-24T01:20:25.784Z,8.07
2018-02-24T01:22:53.978Z,7.75
2018-02-24T01:25:22.844Z,8.40
2018-02-24T01:27:52.022Z,8.32
2018-02-24T01:30:20.247Z,7.68
2018-02-24T01:32:48.508Z,8.45
2018-02-24T01:35:16.755Z,8.02
2018-02-24T01:37:49.559Z,9.02
2018-02-24T01:40:21.659Z,7.72
2018-02-24T01:42:49.865Z,9.35
2018-02-24T01:45:18.809Z,8.50
2018-02-24T01:47:47.001Z,9.13
2018-02-24T01:50:15.191Z,8.60
2018-02-24T01:52:43.380Z,8.10
2018-02-24T01:55:12.012Z,7.65
2018-02-24T01:57:41.016Z,9.48
2018-02-24T02:00:10.051Z,8.23
2018-02-24T02:02:38.246Z,8.82
2018-02-24T02:05:06.411Z,8.23
2018-02-24T02:07:35.342Z,7.50
2018-02-24T02:10:03.499Z,8.77
2018-02-24T02:12:31.671Z,8.13
2018-02-24T02:15:00.018Z,7.80
2018-02-24T02:17:28.955Z,8.10
2018-02-24T02:19:57.199Z,8.02
2018-02-24T02:22:25.783Z,8.77
2018-02-24T02:24:53.998Z,8.07
2018-02-24T02:27:22.164Z,8.38
2018-02-24T02:29:50.471Z,7.68
2018-02-24T02:32:18.689Z,8.30
2018-02-24T02:34:46.840Z,8.15
2018-02-24T02:37:15.785Z,9.02
2018-02-24T02:39:44.032Z,8.50
2018-02-24T02:42:19.856Z,9.02
2018-02-24T02:44:48.474Z,9.00
2018-02-24T02:47:16.644Z,9.85
2018-02-24T02:49:44.845Z,9.80
2018-02-24T02:52:13.036Z,9.20
2018-02-24T02:54:41.194Z,8.18
2018-02-24T02:57:09.343Z,9.02
2018-02-24T02:59:37.660Z,9.02
2018-02-24T03:02:05.905Z,7.87
2018-02-24T03:04:34.177Z,8.93
2018-02-24T03:07:02.416Z,8.90
2018-02-24T03:09:30.639Z,8.60
2018-02-24T03:11:58.871Z,8.65
2018-02-24T03:14:27.091Z,9.27
2018-02-24T03:16:55.320Z,8.55
2018-02-24T03:19:23.504Z,8.88
2018-02-24T03:21:51.992Z,8.55
2018-02-24T03:24:20.183Z,7.95
2018-02-24T03:26:48.356Z,8.77
2018-02-24T03:29:16.634Z,8.43
2018-02-24T03:31:44.820Z,8.23
2018-02-24T03:34:12.982Z,8.32
2018-02-24T03:36:42.198Z,8.43
2018-02-24T03:39:10.409Z,8.18
2018-02-24T03:41:38.597Z,8.10
2018-02-24T03:44:06.782Z,8.60
2018-02-24T03:46:34.971Z,7.95
2018-02-24T03:49:03.696Z,8.48
2018-02-24T03:51:32.683Z,8.20
2018-02-24T03:54:00.894Z,7.95
2018-02-24T03:56:29.198Z,8.32
2018-02-24T03:58:57.639Z,8.35
2018-02-24T04:01:25.809Z,8.65
2018-02-24T04:03:53.978Z,7.95
2018-02-24T04:06:22.255Z,7.43
2018-02-24T04:08:50.398Z,8.15
2018-02-24T04:11:18.558Z,8.23
2018-02-24T04:13:46.765Z,8.18
2018-02-24T04:16:15.066Z,8.02
2018-02-24T04:18:43.271Z,8.15
2018-02-24T04:21:11.534Z,8.23
2018-02-24T04:23:39.815Z,7.40
2018-02-24T04:26:08.020Z,7.45
2018-02-24T04:28:36.975Z,7.80
2018-02-24T04:31:05.140Z,8.57
2018-02-24T04:33:34.082Z,7.47
2018-02-24T04:36:03.075Z,7.37
2018-02-24T04:38:32.022Z,7.40
2018-02-24T04:41:00.188Z,8.63
2018-02-24T04:43:28.374Z,7.35
2018-02-24T04:45:56.859Z,8.40
2018-02-24T04:48:25.092Z,7.72
2018-02-24T04:50:53.340Z,8.00
2018-02-24T04:53:22.258Z,8.68
2018-02-24T04:55:51.367Z,7.05
2018-02-24T04:58:19.553Z,7.75
2018-02-24T05:00:47.729Z,7.75
2018-02-24T05:03:15.892Z,7.72
2018-02-24T05:05:44.114Z,7.85
2018-02-24T05:08:13.046Z,7.47
2018-02-24T05:10:41.287Z,7.43
2018-02-24T05:13:10.272Z,7.43
2018-02-24T05:15:39.236Z,7.35
2018-02-24T05:18:07.410Z,8.05
2018-02-24T05:20:35.579Z,7.55
2018-02-24T05:23:03.739Z,7.47
2018-02-24T05:25:31.927Z,6.28
2018-02-24T05:28:00.119Z,6.55
2018-02-24T05:30:28.293Z,6.68
2018-02-24T05:32:56.484Z,7.00
2018-02-24T05:35:25.439Z,5.97
2018-02-24T05:37:54.573Z,6.20
2018-02-24T05:40:23.522Z,5.32
2018-02-24T05:42:51.706Z,6.93
2018-02-24T05:45:19.881Z,5.37
2018-02-24T05:47:48.108Z,5.30
2018-02-24T05:50:16.280Z,5.72
2018-02-24T05:52:44.470Z,5.45
2018-02-24T05:55:12.634Z,5.03
2018-02-24T05:57:42.132Z,4.78
2018-02-24T06:00:10.288Z,4.85
2018-02-24T06:02:38.447Z,5.20
2018-02-24T06:05:07.521Z,5.72
2018-02-24T06:07:35.714Z,5.55
2018-02-24T06:10:04.667Z,4.50
2018-02-24T06:12:32.863Z,4.87
2018-02-24T06:15:01.059Z,5.50
2018-02-24T06:17:29.996Z,4.20
2018-02-24T06:19:58.161Z,5.10
2018-02-24T06:22:26.334Z,4.75
2018-02-24T06:24:54.584Z,4.62
2018-02-24T06:27:22.814Z,6.05
2018-02-24T06:29:51.080Z,4.10
2018-02-24T06:32:19.347Z,3.67
2018-02-24T06:34:47.610Z,4.10
2018-02-24T06:37:15.784Z,3.97
2018-02-24T06:39:43.959Z,4.10
2018-02-24T06:42:12.167Z,3.92
2018-02-24T06:44:40.360Z,5.10
2018-02-24T06:47:09.691Z,4.30
2018-02-24T06:49:37.957Z,4.60
2018-02-24T06:52:06.141Z,3.97
2018-02-24T06:54:34.383Z,5.05
2018-02-24T06:57:03.329Z,4.07
2018-02-24T06:59:31.499Z,4.43
2018-02-24T07:01:59.676Z,4.60
2018-02-24T07:04:27.903Z,3.75
2018-02-24T07:06:56.119Z,3.85
2018-02-24T07:09:24.293Z,4.28
2018-02-24T07:11:52.493Z,3.80
2018-02-24T07:14:20.651Z,3.75
2018-02-24T07:16:48.836Z,4.10
2018-02-24T07:19:17.007Z,4.32
2018-02-24T07:21:45.184Z,4.18
2018-02-24T07:24:13.369Z,4.32
2018-02-24T07:26:41.647Z,4.07
2018-02-24T07:29:10.567Z,4.57
2018-02-24T07:31:38.811Z,4.00
2018-02-24T07:34:07.813Z,3.72
2018-02-24T07:36:36.289Z,3.78
2018-02-24T07:39:05.284Z,4.10
2018-02-24T07:41:34.632Z,4.70
2018-02-24T07:44:02.948Z,3.90
2018-02-24T07:46:31.858Z,3.67
2018-02-24T07:49:00.277Z,4.30
2018-02-24T07:51:28.552Z,3.90
2018-02-24T07:53:56.731Z,4.03
2018-02-24T07:56:24.970Z,4.95
2018-02-24T07:58:53.134Z,3.22
2018-02-24T08:01:21.511Z,4.07
2018-02-24T08:03:49.844Z,3.00
2018-02-24T08:06:18.032Z,2.87
2018-02-24T08:08:46.247Z,3.00
2018-02-24T08:11:14.449Z,3.00
2018-02-24T08:13:42.691Z,3.00
2018-02-24T08:16:10.880Z,2.83
2018-02-24T08:18:39.082Z,4.00
2018-02-24T08:21:07.283Z,2.90
2018-02-24T08:23:36.399Z,2.83
2018-02-24T08:26:04.633Z,2.65
2018-02-24T08:28:32.823Z,2.40
2018-02-24T08:31:01.772Z,3.00
2018-02-24T08:33:30.010Z,2.95
2018-02-24T08:35:58.320Z,4.93
2018-02-24T08:38:26.512Z,2.70
2018-02-24T08:40:54.735Z,2.72
2018-02-24T08:43:22.923Z,2.55
2018-02-24T08:45:51.511Z,2.85
2018-02-24T08:48:20.537Z,2.70
2018-02-24T08:50:48.761Z,2.80
2018-02-24T08:53:16.929Z,2.80
2018-02-24T08:55:46.675Z,2.83
2018-02-24T08:58:14.907Z,2.95
2018-02-24T09:00:43.899Z,2.33
2018-02-24T09:03:12.818Z,2.90
2018-02-24T09:05:45.660Z,3.17
2018-02-24T09:08:15.356Z,2.70
2018-02-24T09:10:43.523Z,2.78
2018-02-24T09:13:11.709Z,2.70
2018-02-24T09:15:40.666Z,2.95
2018-02-24T09:18:08.876Z,2.60
2018-02-24T09:20:37.105Z,2.85
2018-02-24T09:23:05.252Z,2.95
2018-02-24T09:25:33.459Z,2.70
2018-02-24T09:28:01.760Z,2.87
2018-02-24T09:30:29.979Z,2.62
2018-02-24T09:32:58.131Z,2.95
2018-02-24T09:35:27.078Z,2.58
2018-02-24T09:37:55.234Z,2.60
2018-02-24T09:40:27.073Z,3.80
2018-02-24T09:42:55.476Z,2.67
2018-02-24T09:45:23.843Z,2.85
2018-02-24T09:47:52.044Z,2.50
2018-02-24T09:50:20.274Z,2.67
2018-02-24T09:52:48.508Z,2.67
2018-02-24T09:57:51.875Z,2.30
2018-02-24T10:00:20.067Z,2.83
2018-02-24T10:02:48.272Z,4.10
2018-02-24T10:05:16.474Z,2.45
2018-02-24T10:07:44.839Z,3.70
2018-02-24T10:10:13.797Z,2.50
2018-02-24T10:12:42.047Z,2.97
2018-02-24T10:15:10.224Z,1.98
2018-02-24T10:20:44.610Z,1.90
2018-02-24T10:23:13.577Z,1.73
2018-02-24T10:25:43.336Z,1.85
2018-02-24T10:28:25.594Z,1.90
2018-02-24T10:30:59.962Z,1.87
2018-02-24T10:33:32.028Z,2.15
2018-02-24T10:36:00.276Z,2.90
2018-02-24T10:38:29.233Z,1.85
2018-02-24T10:40:57.489Z,2.08
2018-02-24T10:43:25.696Z,1.77
2018-02-24T10:45:54.173Z,2.20
2018-02-24T10:48:23.933Z,1.90
2018-02-24T10:50:52.175Z,1.73
2018-02-24T10:53:21.343Z,1.70
2018-02-24T10:55:50.303Z,2.28
2018-02-24T10:58:18.628Z,3.53
2018-02-24T11:00:46.819Z,1.83
2018-02-24T11:03:15.736Z,1.90
2018-02-24T11:05:43.970Z,2.95
2018-02-24T11:08:12.169Z,1.73
2018-02-24T11:10:40.355Z,1.60
2018-02-24T11:13:08.581Z,1.60
2018-02-24T11:15:36.688Z,2.40
2018-02-24T11:18:04.878Z,1.50
2018-02-24T11:20:35.089Z,1.55
2018-02-24T11:26:04.715Z,2.08
2018-02-24T11:28:33.023Z,2.40
2018-02-24T11:31:01.293Z,3.75
2018-02-24T11:33:29.600Z,2.58
2018-02-24T11:39:09.298Z,2.60
2018-02-24T11:44:12.365Z,2.30
2018-02-24T11:46:41.924Z,3.08
2018-02-24T11:49:11.794Z,1.75
2018-02-24T11:51:41.558Z,3.30
2018-02-24T11:54:10.020Z,1.55
2018-02-24T12:19:05.018Z,2.10
2018-02-24T12:21:36.629Z,1.58
2018-02-24T14:36:30.991Z,1.50
2018-02-24T14:39:03.985Z,2.00
2018-02-24T14:41:36.733Z,2.40
2018-02-24T14:44:05.542Z,2.03
2018-02-24T14:46:46.407Z,2.37
2018-02-24T15:14:03.692Z,1.90
2018-02-24T15:16:31.884Z,1.70
2018-02-24T15:19:00.786Z,2.17
2018-02-24T15:21:33.508Z,1.73
2018-02-24T15:24:07.300Z,2.08
2018-02-24T15:26:38.356Z,1.80
2018-02-24T15:29:12.303Z,2.33
2018-02-24T15:34:43.680Z,2.37
2018-02-24T15:37:12.118Z,1.65
2018-02-24T16:39:54.180Z,1.52
2018-02-24T16:42:23.153Z,2.20
2018-02-24T16:44:51.355Z,1.85
2018-02-24T16:47:20.291Z,1.90
2018-02-24T16:49:48.502Z,3.65
2018-02-24T16:52:16.675Z,1.70
2018-02-24T16:54:44.955Z,2.05
2018-02-24T16:57:13.211Z,1.95
2018-02-24T16:59:41.820Z,1.60
2018-02-24T17:02:10.847Z,3.05
2018-02-24T17:04:39.060Z,1.95
2018-02-24T17:07:07.479Z,1.87
2018-02-24T17:09:35.714Z,2.25
2018-02-24T17:12:04.060Z,1.80
2018-02-24T17:14:32.235Z,2.00
2018-02-24T17:17:00.589Z,1.80
2018-02-24T17:19:28.742Z,2.70
2018-02-24T17:21:57.671Z,2.10
2018-02-24T17:24:25.915Z,2.50
2018-02-24T17:26:54.870Z,2.17
2018-02-24T17:29:23.070Z,1.70
2018-02-24T17:31:52.069Z,2.65
2018-02-24T17:34:20.275Z,2.58
2018-02-24T17:36:48.538Z,1.95
2018-02-24T17:39:16.729Z,2.72
2018-02-24T17:41:44.923Z,2.22
2018-02-24T17:44:13.158Z,1.87
2018-02-24T17:46:41.379Z,2.25
2018-02-24T17:49:10.239Z,2.37
2018-02-24T17:51:38.411Z,1.75
2018-02-24T17:54:06.674Z,1.70
2018-02-24T17:56:34.838Z,2.00
2018-02-24T17:59:03.083Z,1.85
2018-02-24T18:01:31.384Z,2.50
2018-02-24T18:03:59.584Z,3.92
2018-02-24T18:06:27.828Z,2.28
2018-02-24T18:08:56.877Z,2.05
2018-02-24T18:11:25.042Z,2.03
2018-02-24T18:13:53.314Z,2.17
2018-02-24T18:16:21.515Z,2.47
2018-02-24T18:18:49.662Z,2.15
2018-02-24T18:21:17.865Z,2.03
2018-02-24T18:23:46.150Z,2.50
2018-02-24T18:26:15.179Z,2.95
2018-02-24T18:28:44.348Z,2.50
2018-02-24T18:31:13.354Z,2.90
2018-02-24T18:33:41.527Z,2.70
2018-02-24T18:36:09.776Z,2.97
2018-02-24T18:38:38.901Z,3.00
2018-02-24T18:41:07.130Z,2.92
2018-02-24T18:43:35.335Z,4.07
2018-02-24T18:46:03.537Z,3.17
2018-02-24T18:48:31.698Z,3.37
2018-02-24T18:50:59.865Z,3.00
2018-02-24T18:53:28.436Z,4.50
2018-02-24T18:55:57.418Z,4.40
2018-02-24T18:58:25.655Z,2.47
2018-02-24T19:00:54.597Z,2.58
2018-02-24T19:03:23.778Z,2.55
2018-02-24T19:05:52.853Z,2.67
2018-02-24T19:08:21.942Z,2.00
2018-02-24T19:10:50.188Z,1.95
2018-02-24T19:13:18.352Z,2.70
2018-02-24T19:15:46.532Z,2.60
2018-02-24T19:18:14.722Z,2.20
2018-02-24T19:20:42.943Z,2.33
2018-02-24T19:23:11.922Z,2.40
2018-02-24T19:25:40.100Z,2.03
2018-02-24T19:28:08.282Z,3.00
2018-02-24T19:30:36.432Z,2.78
2018-02-24T19:33:04.624Z,2.87
2018-02-24T19:35:33.581Z,2.40
2018-02-24T19:38:01.812Z,2.50
2018-02-24T19:40:29.971Z,2.65
2018-02-24T19:42:58.890Z,2.40
2018-02-24T19:45:27.072Z,2.80
2018-02-24T19:47:55.278Z,2.30
2018-02-24T19:50:23.468Z,2.58
2018-02-24T19:52:52.432Z,2.75
2018-02-24T19:55:20.613Z,2.65
2018-02-24T19:57:48.845Z,2.20
2018-02-24T20:00:17.139Z,2.50
2018-02-24T20:02:45.350Z,2.92
2018-02-24T20:05:14.360Z,3.10
2018-02-24T20:07:43.359Z,3.05
2018-02-24T20:10:11.551Z,4.30
2018-02-24T20:12:39.733Z,2.60
2018-02-24T20:15:08.038Z,2.62
2018-02-24T20:17:36.214Z,3.45
2018-02-24T20:20:05.159Z,2.20
2018-02-24T20:22:33.345Z,2.70
2018-02-24T20:25:01.607Z,4.53
2018-02-24T20:27:29.889Z,4.18
2018-02-24T20:29:58.152Z,3.37
2018-02-24T20:32:26.314Z,3.50
2018-02-24T20:34:54.533Z,4.15
2018-02-24T20:37:22.799Z,4.07
2018-02-24T20:39:51.022Z,4.20
2018-02-24T20:42:19.966Z,4.30
2018-02-24T20:44:48.154Z,3.20
2018-02-24T20:47:16.313Z,4.25
2018-02-24T20:49:45.276Z,3.97
2018-02-24T20:52:13.439Z,3.67
2018-02-24T20:54:41.620Z,4.28
2018-02-24T20:57:10.626Z,4.00
2018-02-24T20:59:39.017Z,3.65
2018-02-24T21:02:07.182Z,3.67
2018-02-24T21:04:35.340Z,3.92
2018-02-24T21:07:03.559Z,3.47
2018-02-24T21:09:31.769Z,4.00
2018-02-24T21:12:00.692Z,3.47
2018-02-24T21:14:28.885Z,3.05
2018-02-24T21:16:57.164Z,3.45
2018-02-24T21:19:26.397Z,3.22
2018-02-24T21:21:55.401Z,3.35
2018-02-24T21:24:24.321Z,3.15
2018-02-24T21:26:52.538Z,3.10
2018-02-24T21:29:21.674Z,3.42
2018-02-24T21:31:49.881Z,3.35
2018-02-24T21:34:18.857Z,3.53
2018-02-24T21:36:47.128Z,3.20
2018-02-24T21:39:15.324Z,2.95
2018-02-24T21:41:43.524Z,4.87
2018-02-24T21:44:11.700Z,4.07
2018-02-24T21:46:39.970Z,3.80
2018-02-24T21:49:08.234Z,3.35
2018-02-24T21:51:36.441Z,3.83
2018-02-24T21:54:06.678Z,3.33
2018-02-24T21:56:34.820Z,3.50
2018-02-24T21:59:02.983Z,3.85
2018-02-24T22:01:31.146Z,3.50
2018-02-24T22:03:59.372Z,3.53
2018-02-24T22:06:27.604Z,6.15
2018-02-24T22:08:55.822Z,3.67
2018-02-24T22:11:24.001Z,5.62
2018-02-24T22:13:52.161Z,5.72
2018-02-24T22:16:20.369Z,3.80
2018-02-24T22:18:48.554Z,5.53
2018-02-24T22:21:16.718Z,3.28
2018-02-24T22:23:45.946Z,3.80
2018-02-24T22:26:14.159Z,3.53
2018-02-24T22:28:42.391Z,4.00
2018-02-24T22:31:10.632Z,3.20
2018-02-24T22:33:38.787Z,3.90
2018-02-24T22:36:07.010Z,3.95
2018-02-24T22:38:35.196Z,3.62
2018-02-24T22:41:03.420Z,3.60
2018-02-24T22:43:31.614Z,4.05
2018-02-24T22:45:59.827Z,3.83
2018-02-24T22:48:34.241Z,3.80
2018-02-24T22:51:03.161Z,4.15
2018-02-24T22:53:31.381Z,3.35
2018-02-24T22:55:59.548Z,4.00
2018-02-24T22:58:27.738Z,3.00
2018-02-24T23:00:55.944Z,4.20
2018-02-24T23:03:24.261Z,4.72
2018-02-24T23:05:52.500Z,3.50
2018-02-24T23:08:20.669Z,3.00
2018-02-24T23:10:48.830Z,3.40
2018-02-24T23:13:17.048Z,3.40
2018-02-24T23:15:45.318Z,3.00
2018-02-24T23:18:13.455Z,3.08
2018-02-24T23:20:42.426Z,2.95
2018-02-24T23:23:11.370Z,3.15
2018-02-24T23:25:39.558Z,3.40
2018-02-24T23:28:07.747Z,3.42
2018-02-24T23:30:35.973Z,3.65
2018-02-24T23:33:04.124Z,3.67
2018-02-24T23:35:33.182Z,3.37
2018-02-24T23:38:01.401Z,3.00
2018-02-24T23:40:29.569Z,3.10
2018-02-24T23:42:58.511Z,3.17
2018-02-24T23:45:26.692Z,3.03
2018-02-24T23:47:55.023Z,2.62
2018-02-24T23:50:23.214Z,3.05
2018-02-24T23:52:51.467Z,3.53
2018-02-24T23:55:19.637Z,3.50
2018-02-24T23:57:47.875Z,3.08
